Time;durP1;ratioP1;P1;durP2;ratioP2;P2;SDS_P1;SDS_P2;PMS_P1;PMS_P2;Temp;Humidity;BMP_temperature;BMP_pressure;BME280_temperature;BME280_humidity;BME280_pressure;Samples;Min_cycle;Max_cycle;Signal;HPM_P1;HPM_P2
2023/07/12 00:01:09;;;;;;;8.13;5.70;;;28.20;54.90;;;;;;5130931;27;20055;-70
2023/07/12 00:03:36;;;;;;;8.00;6.28;;;28.20;54.90;;;;;;5130894;27;20039;-70
2023/07/12 00:06:02;;;;;;;8.80;5.47;;;28.20;54.90;;;;;;5130634;27;20046;-70
2023/07/12 00:08:31;;;;;;;7.53;6.00;;;28.20;54.90;;;;;;5130882;27;20039;-70
2023/07/12 00:10:58;;;;;;;8.40;5.93;;;28.10;54.90;;;;;;5113651;27;20061;-70
2023/07/12 00:13:25;;;;;;;6.78;6.07;;;28.10;54.90;;;;;;5130716;27;20031;-70
2023/07/12 00:15:52;;;;;;;9.35;6.25;;;28.30;54.90;;;;;;5113315;27;20035;-70
2023/07/12 00:18:21;;;;;;;9.13;6.10;;;28.20;54.90;;;;;;5130622;27;20027;-70
2023/07/12 00:20:49;;;;;;;12.48;6.15;;;28.30;54.90;;;;;;5130433;27;20039;-70
2023/07/12 00:23:16;;;;;;;11.35;7.10;;;28.20;54.90;;;;;;5113353;27;20130;-70
2023/07/12 00:25:45;;;;;;;8.27;6.45;;;28.30;54.90;;;;;;5112584;28;20031;-71
2023/07/12 00:28:23;;;;;;;7.38;6.07;;;28.20;54.90;;;;;;5112178;28;20404;-70
2023/07/12 00:30:54;;;;;;;9.02;6.32;;;28.40;54.90;;;;;;5112083;28;20023;-70
2023/07/12 00:33:20;;;;;;;8.63;6.47;;;28.20;54.90;;;;;;5112114;28;20488;-70
2023/07/12 00:35:48;;;;;;;7.50;6.55;;;28.10;54.90;;;;;;5110918;28;20040;-70
2023/07/12 00:38:22;;;;;;;7.43;6.25;;;28.30;54.80;;;;;;5112408;28;20431;-70
2023/07/12 00:41:01;;;;;;;5.72;4.78;;;28.30;54.80;;;;;;5111116;28;20128;-71
2023/07/12 00:43:53;;;;;;;8.70;5.38;;;28.20;54.70;;;;;;5110899;28;20054;-71
2023/07/12 00:46:25;;;;;;;6.38;4.75;;;28.30;54.80;;;;;;5112204;28;20114;-70
2023/07/12 00:48:51;;;;;;;5.65;4.72;;;28.20;54.80;;;;;;5112099;28;20067;-71
2023/07/12 00:51:28;;;;;;;5.85;4.50;;;28.20;54.90;;;;;;5110743;28;20074;-71
2023/07/12 00:53:55;;;;;;;8.05;4.57;;;28.30;54.90;;;;;;5110722;28;20603;-71
2023/07/12 00:56:21;;;;;;;8.10;4.68;;;28.30;55.00;;;;;;5110343;28;20100;-70
2023/07/12 00:59:14;;;;;;;5.75;4.38;;;28.20;55.10;;;;;;5112011;28;20038;-70
2023/07/12 01:01:40;;;;;;;7.03;5.30;;;28.30;55.00;;;;;;5088796;28;20153;-70
2023/07/12 01:04:11;;;;;;;7.68;4.95;;;28.20;55.10;;;;;;5088824;28;20135;-71
2023/07/12 01:06:39;;;;;;;6.72;5.40;;;28.40;55.00;;;;;;5072139;28;20115;-71
2023/07/12 01:09:12;;;;;;;11.60;4.90;;;28.30;55.10;;;;;;5028748;28;20057;-70
2023/07/12 01:11:40;;;;;;;4.90;4.40;;;28.30;55.00;;;;;;5028683;28;20080;-70
2023/07/12 01:14:15;;;;;;;5.60;4.95;;;28.30;55.10;;;;;;5028761;28;20053;-70
2023/07/12 01:16:46;;;;;;;8.57;4.20;;;28.30;55.00;;;;;;5012183;28;20126;-70
2023/07/12 01:19:13;;;;;;;4.60;4.20;;;28.40;55.00;;;;;;5028372;28;20041;-70
2023/07/12 01:21:45;;;;;;;5.47;4.85;;;28.40;55.10;;;;;;5028520;28;20049;-71
2023/07/12 01:24:11;;;;;;;6.18;4.60;;;28.30;55.00;;;;;;5028575;28;20073;-70
2023/07/12 01:26:43;;;;;;;8.02;5.57;;;28.20;55.00;;;;;;5012086;28;20069;-70
2023/07/12 01:29:10;;;;;;;7.95;5.57;;;28.30;55.00;;;;;;5028645;28;20050;-70
2023/07/12 01:31:37;;;;;;;9.48;5.63;;;28.20;55.00;;;;;;5028492;28;20139;-70
2023/07/12 01:34:03;;;;;;;7.18;5.13;;;28.20;55.10;;;;;;5012060;28;20131;-71
2023/07/12 01:36:31;;;;;;;6.07;4.72;;;28.20;55.10;;;;;;5028464;28;20041;-71
2023/07/12 01:38:59;;;;;;;6.00;5.30;;;28.20;55.10;;;;;;5057746;28;20029;-70
2023/07/12 01:41:25;;;;;;;6.50;5.38;;;28.20;55.10;;;;;;5111583;28;20111;-70
2023/07/12 01:43:53;;;;;;;6.32;5.15;;;28.20;55.10;;;;;;5112818;28;20512;-70
2023/07/12 01:46:20;;;;;;;6.57;5.68;;;28.20;55.10;;;;;;5115429;28;20410;-70
2023/07/12 01:48:46;;;;;;;8.95;5.43;;;28.20;55.10;;;;;;5115113;28;20024;-70
2023/07/12 01:51:13;;;;;;;7.03;5.15;;;28.30;55.10;;;;;;5115857;27;20066;-70
2023/07/12 01:53:40;;;;;;;9.27;5.15;;;28.40;55.00;;;;;;5114247;28;20046;-71
2023/07/12 01:56:06;;;;;;;6.90;5.95;;;28.20;55.10;;;;;;5097491;28;20128;-70
2023/07/12 01:58:32;;;;;;;7.10;5.13;;;28.20;55.00;;;;;;5113855;28;20344;-71
2023/07/12 02:00:59;;;;;;;6.85;4.90;;;28.30;54.90;;;;;;5113812;28;20126;-71
2023/07/12 02:03:26;;;;;;;7.35;5.35;;;28.30;54.90;;;;;;5115459;28;20040;-70
2023/07/12 02:05:53;;;;;;;5.57;4.95;;;28.40;54.80;;;;;;5114131;28;20479;-70
2023/07/12 02:08:20;;;;;;;7.07;5.50;;;28.30;54.80;;;;;;5114053;28;20035;-70
2023/07/12 02:10:46;;;;;;;6.00;5.25;;;28.40;54.80;;;;;;5115130;28;20096;-70
2023/07/12 02:13:13;;;;;;;5.88;5.28;;;28.20;54.80;;;;;;5112554;28;20078;-71
2023/07/12 02:15:39;;;;;;;7.82;5.68;;;28.30;54.80;;;;;;5112427;28;20063;-71
2023/07/12 02:18:06;;;;;;;7.65;5.28;;;28.20;54.90;;;;;;5113909;28;20039;-70
2023/07/12 02:20:32;;;;;;;5.70;4.70;;;28.20;55.00;;;;;;5114829;28;20035;-70
2023/07/12 02:22:58;;;;;;;6.45;5.38;;;28.20;55.00;;;;;;5113674;28;20036;-70
2023/07/12 02:25:25;;;;;;;5.85;4.88;;;28.20;55.00;;;;;;5114815;28;20040;-70
2023/07/12 02:27:51;;;;;;;7.07;4.95;;;28.10;55.00;;;;;;5114873;28;20023;-71
2023/07/12 02:30:24;;;;;;;6.00;5.07;;;28.20;55.00;;;;;;5114486;28;20040;-70
2023/07/12 02:32:51;;;;;;;6.30;4.50;;;28.10;55.00;;;;;;5096566;28;20028;-70
2023/07/12 02:35:19;;;;;;;5.47;4.85;;;28.30;55.00;;;;;;5114824;28;20036;-70
2023/07/12 02:37:45;;;;;;;5.68;4.95;;;28.30;55.00;;;;;;5114568;28;20069;-70
2023/07/12 02:40:13;;;;;;;5.70;4.22;;;28.30;55.00;;;;;;5114228;28;20032;-70
2023/07/12 02:42:39;;;;;;;6.07;4.80;;;28.20;55.00;;;;;;5113082;28;20070;-70
2023/07/12 02:45:07;;;;;;;6.03;5.25;;;28.30;55.00;;;;;;5114179;28;20076;-70
2023/07/12 02:47:33;;;;;;;7.45;4.75;;;28.10;55.00;;;;;;5114531;28;20436;-70
2023/07/12 02:49:59;;;;;;;6.07;5.05;;;28.20;55.00;;;;;;5114294;28;20023;-71
2023/07/12 02:52:25;;;;;;;6.20;4.72;;;28.20;55.00;;;;;;5096016;28;20032;-70
2023/07/12 02:54:51;;;;;;;5.35;4.65;;;28.20;55.00;;;;;;5112649;28;20039;-70
2023/07/12 02:57:18;;;;;;;8.13;4.80;;;28.10;55.00;;;;;;5114009;28;20106;-71
2023/07/12 02:59:44;;;;;;;5.72;4.65;;;28.20;54.90;;;;;;5112693;28;20113;-70
2023/07/12 03:02:12;;;;;;;6.63;4.90;;;28.20;54.90;;;;;;5112742;28;20030;-70
2023/07/12 03:04:38;;;;;;;5.20;4.60;;;28.30;54.90;;;;;;5095570;28;20043;-70
2023/07/12 03:07:05;;;;;;;6.35;4.78;;;28.10;54.90;;;;;;5114129;28;20034;-69
2023/07/12 03:09:31;;;;;;;4.68;4.22;;;28.10;54.90;;;;;;5113842;28;20030;-71
2023/07/12 03:11:57;;;;;;;6.43;4.60;;;28.00;54.90;;;;;;5112772;28;20031;-71
2023/07/12 03:14:24;;;;;;;7.40;4.70;;;28.10;54.90;;;;;;5113970;28;20575;-70
2023/07/12 03:16:50;;;;;;;7.03;4.75;;;28.10;54.90;;;;;;5113900;28;20036;-71
2023/07/12 03:19:17;;;;;;;5.68;5.00;;;28.10;54.90;;;;;;5113630;28;20391;-71
2023/07/12 03:21:45;;;;;;;6.40;4.63;;;28.00;54.90;;;;;;5113865;28;20114;-71
2023/07/12 03:24:11;;;;;;;6.28;5.20;;;28.10;54.90;;;;;;5113686;27;20023;-70
2023/07/12 03:26:37;;;;;;;5.50;4.25;;;28.20;55.00;;;;;;5113469;28;20047;-70
2023/07/12 03:29:04;;;;;;;5.22;4.35;;;28.10;55.00;;;;;;5112570;28;20122;-70
2023/07/12 03:31:30;;;;;;;7.03;4.97;;;28.00;55.00;;;;;;5113710;28;20035;-70
2023/07/12 03:33:57;;;;;;;7.75;5.07;;;28.10;55.00;;;;;;5112351;28;20437;-70
2023/07/12 03:36:28;;;;;;;10.38;5.50;;;28.10;55.00;;;;;;5113346;28;20047;-70
2023/07/12 03:38:55;;;;;;;8.23;4.95;;;28.10;54.90;;;;;;5113458;28;20039;-70
2023/07/12 03:41:21;;;;;;;7.55;4.50;;;28.10;54.90;;;;;;5113326;28;20118;-69
2023/07/12 03:43:48;;;;;;;3.83;3.15;;;28.10;54.90;;;;;;5113427;28;20082;-70
2023/07/12 03:46:14;;;;;;;4.07;2.45;;;28.00;54.80;;;;;;5111794;28;20048;-71
2023/07/12 03:48:40;;;;;;;3.45;2.58;;;28.10;54.80;;;;;;5113271;28;20475;-71
2023/07/12 03:51:08;;;;;;;2.60;2.30;;;28.20;54.80;;;;;;5113260;28;20121;-70
2023/07/12 03:53:36;;;;;;;4.32;3.05;;;28.10;54.70;;;;;;5113002;28;20475;-70
2023/07/12 03:56:03;;;;;;;4.53;4.03;;;28.10;54.40;;;;;;5113200;28;20032;-70
2023/07/12 03:58:38;;;;;;;5.22;4.72;;;28.00;53.00;;;;;;5113164;28;20475;-70
2023/07/12 04:01:10;;;;;;;5.50;4.88;;;28.10;51.80;;;;;;5112848;28;20035;-72
2023/07/12 04:03:37;;;;;;;5.85;4.68;;;28.00;51.00;;;;;;5112659;28;20043;-71
2023/07/12 04:06:03;;;;;;;6.82;5.03;;;28.00;50.90;;;;;;5112268;28;20035;-71
2023/07/12 04:08:30;;;;;;;6.63;5.10;;;28.00;50.90;;;;;;5112489;28;20043;-71
2023/07/12 04:10:57;;;;;;;7.40;5.10;;;28.00;51.00;;;;;;5112737;28;20106;-71
2023/07/12 04:13:25;;;;;;;6.57;5.00;;;28.10;53.00;;;;;;5112563;28;20062;-71
2023/07/12 04:15:56;;;;;;;8.88;4.00;;;28.40;54.20;;;;;;5112684;28;20023;-70
2023/07/12 04:18:24;;;;;;;7.97;4.70;;;28.70;53.60;;;;;;5112544;28;20040;-71
2023/07/12 04:20:50;;;;;;;7.10;5.32;;;28.70;54.80;;;;;;5111141;28;20031;-69
2023/07/12 04:23:16;;;;;;;5.47;4.90;;;28.80;55.10;;;;;;5112573;28;20038;-70
2023/07/12 04:25:42;;;;;;;7.50;5.13;;;28.70;53.00;;;;;;5112565;28;20032;-71
2023/07/12 04:28:09;;;;;;;6.22;4.53;;;28.60;52.40;;;;;;5112532;28;20488;-70
2023/07/12 04:30:35;;;;;;;9.27;4.57;;;28.50;52.30;;;;;;5112239;28;20088;-70
2023/07/12 04:33:03;;;;;;;5.90;5.07;;;28.50;52.30;;;;;;5112491;28;20032;-70
2023/07/12 04:35:29;;;;;;;7.70;4.70;;;28.30;52.30;;;;;;5112297;28;20050;-70
2023/07/12 04:37:55;;;;;;;8.13;4.78;;;28.40;52.30;;;;;;5112412;28;20384;-70
2023/07/12 04:40:21;;;;;;;8.90;4.63;;;28.40;52.30;;;;;;5110947;28;20042;-70
2023/07/12 04:42:47;;;;;;;5.18;4.43;;;28.40;52.20;;;;;;5112238;28;20039;-70
2023/07/12 04:45:13;;;;;;;6.43;4.65;;;28.50;52.20;;;;;;5112152;28;20539;-70
2023/07/12 04:47:40;;;;;;;6.70;4.15;;;28.40;52.20;;;;;;5110771;28;20048;-72
2023/07/12 04:50:08;;;;;;;4.97;4.47;;;28.30;52.30;;;;;;5110958;28;20038;-72
2023/07/12 04:52:34;;;;;;;6.55;4.47;;;28.30;52.30;;;;;;5110677;28;20111;-69
2023/07/12 04:55:03;;;;;;;5.03;4.43;;;28.40;52.20;;;;;;5112064;28;20528;-70
2023/07/12 04:57:31;;;;;;;5.35;4.53;;;28.30;52.00;;;;;;5112026;28;20023;-69
2023/07/12 04:59:57;;;;;;;6.20;4.03;;;28.30;51.00;;;;;;5111823;28;20079;-70
2023/07/12 05:02:24;;;;;;;4.40;3.95;;;28.30;50.50;;;;;;5110458;28;20039;-70
2023/07/12 05:04:49;;;;;;;6.05;4.43;;;28.30;50.00;;;;;;5111811;28;20069;-71
2023/07/12 05:07:15;;;;;;;8.15;4.40;;;28.40;50.30;;;;;;5111867;28;20040;-71
2023/07/12 05:09:41;;;;;;;5.53;4.22;;;28.20;52.30;;;;;;5109463;28;20483;-71
2023/07/12 05:12:08;;;;;;;4.43;4.03;;;28.30;51.50;;;;;;5111871;28;20036;-70
2023/07/12 05:14:34;;;;;;;5.03;3.90;;;28.30;50.90;;;;;;5110455;28;20043;-70
2023/07/12 05:17:00;;;;;;;5.68;4.40;;;28.50;50.90;;;;;;5111649;28;20035;-72
2023/07/12 05:19:26;;;;;;;8.10;4.90;;;28.30;50.90;;;;;;5110299;28;20404;-70
2023/07/12 05:21:52;;;;;;;5.43;4.40;;;28.40;51.10;;;;;;5110540;28;20042;-71
2023/07/12 05:24:19;;;;;;;7.07;4.90;;;28.30;51.40;;;;;;5111470;28;20036;-70
2023/07/12 05:26:45;;;;;;;5.68;3.83;;;28.40;50.80;;;;;;5111655;28;20035;-70
2023/07/12 05:29:12;;;;;;;4.53;4.00;;;28.30;50.70;;;;;;5111449;28;20807;-71
2023/07/12 05:31:38;;;;;;;4.88;4.28;;;28.40;50.80;;;;;;5110138;28;20096;-70
2023/07/12 05:34:04;;;;;;;6.65;5.97;;;28.40;50.60;;;;;;5110322;28;20410;-70
2023/07/12 05:36:30;;;;;;;9.15;7.22;;;28.50;50.60;;;;;;5111786;28;20076;-70
2023/07/12 05:38:58;;;;;;;10.68;8.07;;;28.40;50.50;;;;;;5110376;28;20395;-70
2023/07/12 05:41:25;;;;;;;6.45;5.75;;;28.30;51.60;;;;;;5111172;28;20043;-71
2023/07/12 05:43:51;;;;;;;7.53;5.65;;;28.40;51.60;;;;;;5111171;28;20049;-73
2023/07/12 05:46:17;;;;;;;4.95;3.58;;;28.50;51.00;;;;;;5110813;28;20388;-72
2023/07/12 05:48:43;;;;;;;6.90;3.42;;;28.50;50.80;;;;;;5129111;28;20043;-72
2023/07/12 05:51:09;;;;;;;5.00;3.78;;;28.40;50.80;;;;;;5129091;28;20131;-72
2023/07/12 05:53:35;;;;;;;3.92;3.55;;;28.30;51.10;;;;;;5129343;28;20047;-72
2023/07/12 05:56:03;;;;;;;5.35;3.78;;;28.60;51.10;;;;;;5129296;28;20035;-72
2023/07/12 05:58:29;;;;;;;3.55;3.13;;;28.60;51.40;;;;;;5112490;28;20644;-73
2023/07/12 06:00:58;;;;;;;4.70;3.92;;;28.40;51.60;;;;;;5128461;28;20035;-70
2023/07/12 06:03:25;;;;;;;3.47;3.10;;;28.50;51.90;;;;;;5129130;28;20039;-70
2023/07/12 06:05:52;;;;;;;3.78;3.40;;;28.50;50.60;;;;;;5129194;28;20474;-70
2023/07/12 06:08:18;;;;;;;4.18;3.58;;;28.40;48.80;;;;;;5129170;28;20055;-71
2023/07/12 06:10:45;;;;;;;3.40;3.10;;;28.30;49.60;;;;;;5129104;28;20043;-69
2023/07/12 06:13:12;;;;;;;4.20;2.85;;;28.40;49.60;;;;;;5129131;28;20487;-70
2023/07/12 06:15:38;;;;;;;3.42;3.13;;;28.30;48.80;;;;;;5111999;28;20039;-70
2023/07/12 06:18:04;;;;;;;5.88;2.83;;;28.30;47.50;;;;;;5111886;28;20054;-70
2023/07/12 06:20:30;;;;;;;3.45;3.15;;;28.30;47.80;;;;;;5114117;28;20130;-72
2023/07/12 06:22:57;;;;;;;2.90;2.60;;;28.20;48.40;;;;;;5111263;28;20035;-75
2023/07/12 06:25:24;;;;;;;3.22;2.92;;;28.20;48.30;;;;;;5109810;28;20038;-71
2023/07/12 06:27:50;;;;;;;7.35;3.67;;;28.40;48.00;;;;;;5091750;28;20399;-72
2023/07/12 06:30:17;;;;;;;3.40;2.90;;;28.30;47.80;;;;;;5112982;28;20035;-72
2023/07/12 06:32:44;;;;;;;3.70;3.30;;;28.30;47.70;;;;;;5113610;28;20032;-72
2023/07/12 06:35:10;;;;;;;3.40;2.75;;;28.30;47.70;;;;;;5108729;28;20035;-75
2023/07/12 06:37:36;;;;;;;3.33;2.95;;;28.40;47.70;;;;;;5112123;28;20036;-74
2023/07/12 06:40:02;;;;;;;5.10;2.85;;;28.50;47.70;;;;;;5126199;27;20039;-71
2023/07/12 06:42:28;;;;;;;4.70;3.38;;;28.40;47.70;;;;;;5132747;27;20093;-71
2023/07/12 06:44:57;;;;;;;6.03;3.10;;;28.50;47.70;;;;;;5115238;27;20151;-71
2023/07/12 06:47:23;;;;;;;4.90;3.33;;;28.40;47.80;;;;;;5132652;27;20088;-71
2023/07/12 06:49:49;;;;;;;3.80;2.85;;;28.40;47.70;;;;;;5132207;27;20039;-73
2023/07/12 06:52:15;;;;;;;5.07;3.42;;;28.40;47.60;;;;;;5117256;27;20039;-72
2023/07/12 06:54:41;;;;;;;3.50;2.75;;;28.40;47.50;;;;;;5111843;28;20051;-72
2023/07/12 06:57:07;;;;;;;3.00;2.70;;;28.30;47.40;;;;;;5111754;28;20439;-73
2023/07/12 06:59:33;;;;;;;3.88;2.80;;;28.30;47.20;;;;;;5112125;28;20055;-72
2023/07/12 07:01:59;;;;;;;2.42;2.22;;;28.40;46.70;;;;;;5111464;28;20423;-72
2023/07/12 07:04:25;;;;;;;5.45;2.38;;;28.50;46.40;;;;;;5111554;28;20043;-72
2023/07/12 07:06:51;;;;;;;3.22;2.90;;;28.40;46.40;;;;;;5111497;28;20081;-71
2023/07/12 07:09:17;;;;;;;2.92;2.63;;;28.40;46.30;;;;;;5120256;27;20027;-70
2023/07/12 07:11:43;;;;;;;3.78;2.50;;;28.40;46.40;;;;;;5131734;27;20378;-70
2023/07/12 07:14:09;;;;;;;3.45;2.40;;;28.40;46.40;;;;;;5129567;27;20078;-70
2023/07/12 07:16:36;;;;;;;3.58;2.05;;;28.40;46.40;;;;;;5112878;28;20455;-70
2023/07/12 07:19:02;;;;;;;7.00;2.55;;;28.20;46.50;;;;;;5113943;28;20032;-71
2023/07/12 07:21:28;;;;;;;3.30;2.47;;;28.30;46.20;;;;;;5113664;28;20403;-72
2023/07/12 07:23:54;;;;;;;3.38;1.95;;;28.30;45.80;;;;;;5113509;28;20032;-72
2023/07/12 07:26:20;;;;;;;3.70;2.15;;;28.20;45.90;;;;;;5112808;28;20618;-74
2023/07/12 07:28:46;;;;;;;2.58;2.25;;;28.30;46.10;;;;;;5095218;28;20036;-73
2023/07/12 07:31:12;;;;;;;3.00;2.22;;;28.20;46.00;;;;;;5113514;28;20035;-73
2023/07/12 07:33:39;;;;;;;2.05;1.80;;;28.30;45.50;;;;;;5113384;28;20038;-74
2023/07/12 07:36:08;;;;;;;2.40;2.20;;;28.30;45.00;;;;;;5095050;28;20035;-75
2023/07/12 07:38:36;;;;;;;2.28;2.03;;;28.30;44.70;;;;;;5112196;28;20039;-72
2023/07/12 07:41:09;;;;;;;2.40;2.13;;;28.40;44.20;;;;;;5111739;28;20035;-74
2023/07/12 07:43:36;;;;;;;1.80;1.63;;;28.30;44.10;;;;;;5101858;28;20035;-73
2023/07/12 07:46:03;;;;;;;2.65;2.05;;;28.30;44.00;;;;;;5111076;28;20135;-71
2023/07/12 07:48:29;;;;;;;7.03;2.08;;;28.30;44.10;;;;;;5113098;28;20023;-74
2023/07/12 07:50:56;;;;;;;2.70;2.30;;;28.20;44.10;;;;;;5109349;28;20023;-72
2023/07/12 07:53:22;;;;;;;2.10;1.90;;;28.30;44.00;;;;;;5122150;27;20042;-73
2023/07/12 07:55:49;;;;;;;3.08;2.40;;;28.10;43.80;;;;;;5117218;27;20035;-73
2023/07/12 07:58:15;;;;;;;6.55;2.38;;;28.10;43.90;;;;;;5129016;27;20031;-73
2023/07/12 08:00:42;;;;;;;5.82;2.53;;;28.30;44.00;;;;;;5111775;28;20161;-73
2023/07/12 08:03:08;;;;;;;2.90;2.70;;;28.20;44.60;;;;;;5111808;28;20100;-72
2023/07/12 08:05:35;;;;;;;3.47;2.15;;;28.30;45.00;;;;;;5104509;28;20040;-72
2023/07/12 08:08:01;;;;;;;2.65;1.92;;;28.20;45.40;;;;;;5092775;28;20383;-74
2023/07/12 08:10:29;;;;;;;2.90;2.15;;;28.30;45.60;;;;;;5091364;28;20488;-73
2023/07/12 08:12:56;;;;;;;2.00;1.90;;;28.30;45.50;;;;;;5092278;28;20028;-72
2023/07/12 08:15:23;;;;;;;2.15;1.95;;;28.20;45.60;;;;;;5092043;28;20135;-72
2023/07/12 08:17:49;;;;;;;3.38;2.08;;;28.10;45.30;;;;;;5092073;28;20067;-73
2023/07/12 08:20:15;;;;;;;4.72;2.10;;;28.20;45.10;;;;;;5092049;28;20111;-73
2023/07/12 08:22:42;;;;;;;2.10;2.00;;;28.20;45.00;;;;;;5092222;28;20555;-72
2023/07/12 08:25:09;;;;;;;2.55;1.88;;;28.10;44.80;;;;;;5092100;28;20032;-73
2023/07/12 08:27:35;;;;;;;2.88;2.40;;;28.20;44.90;;;;;;5092063;28;20036;-75
2023/07/12 08:30:02;;;;;;;1.83;1.73;;;28.20;44.90;;;;;;5092240;28;20502;-73
2023/07/12 08:32:33;;;;;;;2.28;2.08;;;28.20;45.00;;;;;;5091755;28;20032;-73
2023/07/12 08:35:03;;;;;;;3.33;2.38;;;28.00;45.00;;;;;;5090829;28;20063;-73
2023/07/12 08:37:30;;;;;;;2.70;1.80;;;28.00;45.00;;;;;;5091995;28;20034;-74
2023/07/12 08:39:56;;;;;;;4.68;2.60;;;28.00;44.90;;;;;;5091765;28;20028;-72
2023/07/12 08:42:37;;;;;;;2.58;1.90;;;28.00;44.70;;;;;;5090507;28;20481;-72
2023/07/12 08:45:18;;;;;;;4.18;2.50;;;28.00;43.90;;;;;;5110656;28;20047;-74
2023/07/12 08:47:45;;;;;;;3.00;2.22;;;28.00;44.60;;;;;;5110966;28;20537;-72
2023/07/12 08:50:15;;;;;;;9.38;3.60;;;28.20;45.60;;;;;;5110988;28;20484;-72
2023/07/12 08:52:44;;;;;;;6.70;3.25;;;28.30;46.90;;;;;;5076487;28;20028;-71
2023/07/12 08:55:34;;;;;;;3.28;2.97;;;28.30;48.50;;;;;;5111873;28;20050;-71
2023/07/12 08:58:24;;;;;;;4.57;2.97;;;28.50;48.90;;;;;;5108715;28;20051;-71
2023/07/12 09:01:00;;;;;;;7.15;5.57;;;28.50;48.40;;;;;;5068454;28;20133;-72
2023/07/12 09:03:26;;;;;;;3.95;3.00;;;28.50;47.40;;;;;;5068604;28;20051;-75
2023/07/12 09:05:52;;;;;;;3.15;2.50;;;28.50;46.00;;;;;;5068717;28;20135;-72
2023/07/12 09:08:31;;;;;;;2.45;2.25;;;28.40;46.00;;;;;;5068770;28;20072;-72
2023/07/12 09:10:57;;;;;;;2.35;2.10;;;28.30;45.50;;;;;;5068716;28;20063;-72
2023/07/12 09:13:35;;;;;;;2.65;2.10;;;28.50;45.60;;;;;;5068532;28;20116;-73
2023/07/12 09:16:02;;;;;;;4.03;2.60;;;28.40;45.70;;;;;;5068706;28;20086;-71
2023/07/12 09:18:36;;;;;;;4.78;2.25;;;28.40;45.90;;;;;;5068528;28;20044;-71
2023/07/12 09:21:20;;;;;;;2.20;1.92;;;28.40;46.00;;;;;;5068499;28;20145;-71
2023/07/12 09:23:46;;;;;;;3.17;2.88;;;28.40;46.10;;;;;;5051909;28;20047;-71
2023/07/12 09:26:22;;;;;;;2.03;1.92;;;28.50;46.40;;;;;;5068508;28;20037;-72
2023/07/12 09:28:50;;;;;;;5.30;2.78;;;28.40;46.30;;;;;;5068629;28;20055;-72
2023/07/12 09:31:27;;;;;;;4.22;2.10;;;28.40;46.40;;;;;;5068423;28;20647;-73
2023/07/12 09:33:59;;;;;;;2.15;1.95;;;28.40;46.50;;;;;;5066626;28;20418;-73
2023/07/12 09:36:25;;;;;;;2.60;2.03;;;28.40;46.50;;;;;;5068703;28;20097;-72
2023/07/12 09:38:51;;;;;;;3.53;2.20;;;28.40;46.60;;;;;;5107672;28;20446;-71
2023/07/12 09:41:22;;;;;;;2.38;1.95;;;28.40;46.60;;;;;;5111479;28;20093;-74
2023/07/12 09:43:57;;;;;;;4.10;1.88;;;28.50;46.70;;;;;;5111673;28;20432;-72
2023/07/12 09:46:29;;;;;;;2.47;1.90;;;28.50;46.80;;;;;;5111232;28;20121;-71
2023/07/12 09:49:07;;;;;;;3.10;2.03;;;28.50;46.80;;;;;;5111600;28;20046;-71
2023/07/12 09:52:01;;;;;;;2.70;2.38;;;28.40;46.80;;;;;;5111336;28;20031;-73
2023/07/12 09:54:50;;;;;;;4.80;2.60;;;28.50;47.00;;;;;;5111518;28;20023;-74
2023/07/12 09:57:28;;;;;;;2.97;2.10;;;28.40;47.10;;;;;;5111176;28;20058;-72
2023/07/12 09:59:56;;;;;;;2.40;2.20;;;28.50;47.80;;;;;;5109266;28;20506;-75
2023/07/12 10:02:38;;;;;;;2.10;1.95;;;28.60;49.00;;;;;;5088642;28;20032;-70
2023/07/12 10:05:15;;;;;;;3.22;2.33;;;28.70;50.70;;;;;;5111775;28;20483;-71
2023/07/12 10:08:01;;;;;;;6.93;2.67;;;28.70;51.30;;;;;;5114353;28;20031;-71
2023/07/12 10:10:43;;;;;;;5.60;4.10;;;28.70;50.60;;;;;;5113547;28;20050;-72
2023/07/12 10:13:34;;;;;;;10.70;4.28;;;28.70;51.90;;;;;;5113608;28;20113;-72
2023/07/12 10:16:02;;;;;;;3.08;2.72;;;29.00;54.50;;;;;;5104261;28;20088;-70
2023/07/12 10:18:32;;;;;;;6.18;3.17;;;29.20;55.10;;;;;;5114137;28;20032;-70
2023/07/12 10:20:59;;;;;;;2.75;2.22;;;29.10;55.40;;;;;;5111594;28;20038;-72
2023/07/12 10:23:32;;;;;;;4.13;2.67;;;29.00;51.40;;;;;;5113306;28;20399;-70
2023/07/12 10:26:04;;;;;;;4.22;2.35;;;29.00;51.70;;;;;;5114722;28;20080;-70
2023/07/12 10:29:01;;;;;;;4.32;2.58;;;29.10;50.70;;;;;;5114743;28;20038;-71
2023/07/12 10:31:45;;;;;;;3.00;2.78;;;29.00;49.40;;;;;;5113311;28;20072;-72
2023/07/12 10:34:20;;;;;;;3.00;2.63;;;28.90;48.90;;;;;;5114750;28;20475;-71
2023/07/12 10:36:50;;;;;;;4.13;2.85;;;29.10;53.70;;;;;;5114862;28;20032;-72
2023/07/12 10:39:16;;;;;;;3.58;2.50;;;29.30;53.30;;;;;;5114583;28;20085;-69
2023/07/12 10:41:47;;;;;;;3.58;2.42;;;29.40;51.20;;;;;;5114372;28;20404;-72
2023/07/12 10:44:26;;;;;;;3.85;2.17;;;29.20;50.00;;;;;;5114480;28;20037;-71
2023/07/12 10:46:57;;;;;;;2.55;2.10;;;29.20;49.80;;;;;;5114615;28;20044;-69
2023/07/12 10:50:07;;;;;;;4.50;2.22;;;29.20;49.90;;;;;;5114453;28;20027;-72
2023/07/12 10:52:34;;;;;;;3.65;2.30;;;29.20;49.70;;;;;;5037764;28;20068;-74
2023/07/12 10:55:03;;;;;;;3.15;2.17;;;29.30;49.50;;;;;;5071346;28;20041;-73
2023/07/12 10:57:46;;;;;;;2.10;1.90;;;29.30;49.20;;;;;;5054722;28;20039;-72
2023/07/12 11:00:25;;;;;;;3.70;2.42;;;29.20;49.00;;;;;;5054702;28;20140;-73
2023/07/12 11:03:17;;;;;;;2.40;2.20;;;29.10;49.00;;;;;;5071018;28;20044;-72
2023/07/12 11:05:59;;;;;;;5.27;2.10;;;29.20;48.80;;;;;;5071128;28;20052;-72
2023/07/12 11:08:31;;;;;;;2.40;1.92;;;29.30;49.00;;;;;;5071164;28;20441;-73
2023/07/12 11:11:20;;;;;;;2.53;2.17;;;29.10;49.10;;;;;;5071003;28;20040;-73
2023/07/12 11:13:52;;;;;;;2.58;2.20;;;29.20;49.10;;;;;;5011206;28;20690;-72
2023/07/12 11:16:20;;;;;;;2.20;1.80;;;29.10;49.10;;;;;;5010799;28;20076;-72
2023/07/12 11:18:51;;;;;;;3.88;1.92;;;29.30;49.10;;;;;;4995044;28;20049;-71
2023/07/12 11:21:40;;;;;;;2.30;2.00;;;29.10;49.10;;;;;;5010721;28;20124;-71
2023/07/12 11:24:41;;;;;;;5.55;2.55;;;29.20;49.20;;;;;;5011122;28;20137;-71
2023/07/12 11:27:53;;;;;;;2.28;2.08;;;29.10;49.30;;;;;;5019968;28;20595;-72
2023/07/12 11:30:26;;;;;;;2.35;2.13;;;29.30;49.40;;;;;;5070697;28;20040;-70
2023/07/12 11:32:55;;;;;;;;;;;29.10;49.50;;;;;;5070756;28;20123;-73
2023/07/12 11:35:43;;;;;;;2.17;2.00;;;29.20;49.50;;;;;;5070571;28;20742;-72
2023/07/12 11:38:27;;;;;;;2.55;2.15;;;29.20;49.40;;;;;;5070479;28;20040;-72
2023/07/12 11:40:55;;;;;;;2.20;2.00;;;29.10;49.50;;;;;;5053971;28;20614;-73
2023/07/12 11:43:24;;;;;;;3.42;1.67;;;29.00;49.40;;;;;;5053217;28;20032;-71
2023/07/12 11:45:53;;;;;;;2.03;1.80;;;29.20;49.60;;;;;;5053349;28;20061;-70
2023/07/12 11:48:20;;;;;;;2.38;2.17;;;29.00;49.70;;;;;;5053573;28;20572;-70
2023/07/12 11:50:49;;;;;;;5.20;1.65;;;29.10;49.90;;;;;;5091232;28;21397;-70
2023/07/12 11:53:16;;;;;;;10.18;2.20;;;29.10;49.90;;;;;;5112959;28;20483;-71
2023/07/12 11:55:42;;;;;;;6.05;2.10;;;29.00;50.00;;;;;;5113453;28;20038;-72
2023/07/12 11:58:17;;;;;;;4.22;1.60;;;29.00;50.00;;;;;;5094887;28;20379;-70
2023/07/12 12:00:45;;;;;;;2.03;1.83;;;29.10;50.00;;;;;;5113272;28;20023;-75
2023/07/12 12:03:14;;;;;;;3.92;1.67;;;28.90;49.50;;;;;;5112754;28;20031;-74
2023/07/12 12:05:40;;;;;;;2.17;1.60;;;29.10;50.00;;;;;;5112819;28;20376;-71
2023/07/12 12:08:15;;;;;;;3.88;2.17;;;29.00;50.10;;;;;;5111561;28;20035;-73
2023/07/12 12:10:41;;;;;;;6.25;2.13;;;28.90;49.60;;;;;;5112948;28;20036;-71
2023/07/12 12:13:19;;;;;;;6.05;1.85;;;29.10;50.10;;;;;;5112834;28;20045;-73
2023/07/12 12:15:51;;;;;;;7.70;2.30;;;29.00;50.00;;;;;;5112858;28;20067;-70
2023/07/12 12:18:22;;;;;;;4.97;2.43;;;29.00;50.20;;;;;;5112799;28;20020;-73
2023/07/12 12:21:01;;;;;;;3.10;2.20;;;29.00;51.30;;;;;;5111715;28;20474;-72
2023/07/12 12:23:31;;;;;;;4.78;2.60;;;28.90;50.90;;;;;;5109813;28;20051;-70
2023/07/12 12:26:01;;;;;;;3.22;2.92;;;28.80;50.50;;;;;;5111416;28;20531;-69
2023/07/12 12:28:27;;;;;;;3.60;2.10;;;28.80;50.20;;;;;;5111958;28;20039;-70
2023/07/12 12:31:17;;;;;;;5.20;1.80;;;28.90;50.30;;;;;;5112687;28;20478;-72
2023/07/12 12:34:10;;;;;;;6.80;2.08;;;28.90;50.90;;;;;;5072268;28;20043;-73
2023/07/12 12:36:36;;;;;;;2.83;1.80;;;28.80;51.00;;;;;;5089641;28;20039;-76
2023/07/12 12:39:21;;;;;;;1.77;1.45;;;28.90;51.10;;;;;;5089478;28;20048;-75
2023/07/12 12:41:59;;;;;;;3.10;1.90;;;28.80;51.20;;;;;;5089349;28;20040;-74
2023/07/12 12:44:35;;;;;;;1.70;1.40;;;28.90;51.10;;;;;;5071997;28;20642;-75
2023/07/12 12:47:13;;;;;;;5.40;2.85;;;28.80;51.00;;;;;;5069170;28;20028;-76
2023/07/12 12:49:39;;;;;;;4.10;2.35;;;28.80;50.90;;;;;;5069301;28;20041;-75
2023/07/12 12:52:24;;;;;;;5.15;1.70;;;28.80;50.60;;;;;;5068947;28;20048;-76
2023/07/12 12:54:50;;;;;;;2.67;2.33;;;28.70;50.60;;;;;;5069126;28;20036;-77
2023/07/12 12:57:17;;;;;;;5.63;1.70;;;28.70;50.80;;;;;;5069035;28;20044;-77
2023/07/12 12:59:43;;;;;;;3.47;2.78;;;28.60;50.80;;;;;;5069065;28;20452;-77
2023/07/12 13:02:18;;;;;;;3.45;2.10;;;28.70;50.90;;;;;;5068515;28;20033;-75